sensor_id;sensor_type;location;lat;lon;timestamp;P1;durP1;ratioP1;P2;durP2;ratioP2
33279;SDS011;20403;43.114;12.434;2023-03-23T00:00:55;12.93;;;8.65;;
33279;SDS011;20403;43.114;12.434;2023-03-23T00:03:21;17.15;;;9.15;;
33279;SDS011;20403;43.114;12.434;2023-03-23T00:05:47;16.88;;;8.52;;
33279;SDS011;20403;43.114;12.434;2023-03-23T00:08:19;16.75;;;8.73;;
33279;SDS011;20403;43.114;12.434;2023-03-23T00:10:49;13.75;;;8.57;;
33279;SDS011;20403;43.114;12.434;2023-03-23T00:13:17;18.90;;;8.50;;
33279;SDS011;20403;43.114;12.434;2023-03-23T00:15:45;28.42;;;9.45;;
33279;SDS011;20403;43.114;12.434;2023-03-23T00:18:13;13.82;;;9.07;;
33279;SDS011;20403;43.114;12.434;2023-03-23T00:20:47;14.77;;;8.93;;
33279;SDS011;20403;43.114;12.434;2023-03-23T00:23:24;16.77;;;9.25;;
33279;SDS011;20403;43.114;12.434;2023-03-23T00:25:51;15.55;;;8.30;;
33279;SDS011;20403;43.114;12.434;2023-03-23T00:28:22;20.02;;;8.95;;
33279;SDS011;20403;43.114;12.434;2023-03-23T00:30:58;12.80;;;8.93;;
33279;SDS011;20403;43.114;12.434;2023-03-23T00:33:30;15.13;;;8.98;;
33279;SDS011;20403;43.114;12.434;2023-03-23T00:35:58;16.50;;;9.38;;
33279;SDS011;20403;43.114;12.434;2023-03-23T00:38:24;16.00;;;9.20;;
33279;SDS011;20403;43.114;12.434;2023-03-23T00:40:50;13.45;;;8.75;;
33279;SDS011;20403;43.114;12.434;2023-03-23T00:43:17;19.27;;;8.57;;
33279;SDS011;20403;43.114;12.434;2023-03-23T00:45:43;16.73;;;8.68;;
33279;SDS011;20403;43.114;12.434;2023-03-23T00:48:10;15.43;;;9.15;;
33279;SDS011;20403;43.114;12.434;2023-03-23T00:50:38;14.27;;;9.35;;
33279;SDS011;20403;43.114;12.434;2023-03-23T00:53:04;14.55;;;8.52;;
33279;SDS011;20403;43.114;12.434;2023-03-23T00:55:30;13.77;;;7.95;;
33279;SDS011;20403;43.114;12.434;2023-03-23T00:57:55;13.98;;;8.20;;
33279;SDS011;20403;43.114;12.434;2023-03-23T01:00:21;14.65;;;8.18;;
33279;SDS011;20403;43.114;12.434;2023-03-23T01:02:48;17.77;;;8.40;;
33279;SDS011;20403;43.114;12.434;2023-03-23T01:05:16;12.00;;;8.25;;
33279;SDS011;20403;43.114;12.434;2023-03-23T01:07:42;15.15;;;8.45;;
33279;SDS011;20403;43.114;12.434;2023-03-23T01:10:09;17.55;;;9.13;;
33279;SDS011;20403;43.114;12.434;2023-03-23T01:12:39;12.85;;;8.73;;
33279;SDS011;20403;43.114;12.434;2023-03-23T01:15:05;12.25;;;7.95;;
33279;SDS011;20403;43.114;12.434;2023-03-23T01:17:31;12.95;;;8.38;;
33279;SDS011;20403;43.114;12.434;2023-03-23T01:19:56;13.82;;;8.10;;
33279;SDS011;20403;43.114;12.434;2023-03-23T01:22:21;18.25;;;9.40;;
33279;SDS011;20403;43.114;12.434;2023-03-23T01:24:47;13.43;;;8.27;;
33279;SDS011;20403;43.114;12.434;2023-03-23T01:27:12;15.10;;;9.27;;
33279;SDS011;20403;43.114;12.434;2023-03-23T01:29:38;14.57;;;9.20;;
33279;SDS011;20403;43.114;12.434;2023-03-23T01:32:03;16.40;;;9.80;;
33279;SDS011;20403;43.114;12.434;2023-03-23T01:34:28;16.65;;;8.77;;
33279;SDS011;20403;43.114;12.434;2023-03-23T01:36:54;15.82;;;9.00;;
33279;SDS011;20403;43.114;12.434;2023-03-23T01:39:19;18.05;;;8.73;;
33279;SDS011;20403;43.114;12.434;2023-03-23T01:41:45;15.27;;;8.68;;
33279;SDS011;20403;43.114;12.434;2023-03-23T01:49:08;15.65;;;7.97;;
33279;SDS011;20403;43.114;12.434;2023-03-23T01:51:39;15.40;;;8.52;;
33279;SDS011;20403;43.114;12.434;2023-03-23T01:54:11;13.80;;;7.75;;
33279;SDS011;20403;43.114;12.434;2023-03-23T01:56:45;15.38;;;9.70;;
33279;SDS011;20403;43.114;12.434;2023-03-23T01:59:33;12.75;;;8.80;;
33279;SDS011;20403;43.114;12.434;2023-03-23T02:02:00;14.20;;;8.20;;
33279;SDS011;20403;43.114;12.434;2023-03-23T02:04:27;17.55;;;9.30;;
33279;SDS011;20403;43.114;12.434;2023-03-23T02:06:53;14.57;;;8.75;;
33279;SDS011;20403;43.114;12.434;2023-03-23T02:09:22;16.65;;;8.65;;
33279;SDS011;20403;43.114;12.434;2023-03-23T02:11:50;12.45;;;8.48;;
33279;SDS011;20403;43.114;12.434;2023-03-23T02:14:17;13.48;;;8.80;;
33279;SDS011;20403;43.114;12.434;2023-03-23T02:22:28;14.43;;;9.07;;
33279;SDS011;20403;43.114;12.434;2023-03-23T02:38:22;19.05;;;9.15;;
33279;SDS011;20403;43.114;12.434;2023-03-23T02:40:53;14.80;;;9.88;;
33279;SDS011;20403;43.114;12.434;2023-03-23T02:43:22;17.48;;;10.20;;
33279;SDS011;20403;43.114;12.434;2023-03-23T02:45:49;16.15;;;9.80;;
33279;SDS011;20403;43.114;12.434;2023-03-23T02:48:17;19.08;;;9.25;;
33279;SDS011;20403;43.114;12.434;2023-03-23T02:50:47;20.40;;;10.03;;
33279;SDS011;20403;43.114;12.434;2023-03-23T02:53:17;17.20;;;10.60;;
33279;SDS011;20403;43.114;12.434;2023-03-23T02:55:47;15.70;;;10.10;;
33279;SDS011;20403;43.114;12.434;2023-03-23T02:58:13;16.75;;;10.30;;
33279;SDS011;20403;43.114;12.434;2023-03-23T03:00:39;16.23;;;10.55;;
33279;SDS011;20403;43.114;12.434;2023-03-23T03:03:06;13.20;;;9.65;;
33279;SDS011;20403;43.114;12.434;2023-03-23T03:08:21;14.50;;;9.55;;
33279;SDS011;20403;43.114;12.434;2023-03-23T03:11:03;15.43;;;9.20;;
33279;SDS011;20403;43.114;12.434;2023-03-23T03:16:43;14.80;;;9.65;;
33279;SDS011;20403;43.114;12.434;2023-03-23T03:19:35;16.25;;;9.85;;
33279;SDS011;20403;43.114;12.434;2023-03-23T03:22:05;19.02;;;10.55;;
33279;SDS011;20403;43.114;12.434;2023-03-23T03:24:32;18.88;;;10.40;;
33279;SDS011;20403;43.114;12.434;2023-03-23T03:27:02;18.75;;;9.75;;
33279;SDS011;20403;43.114;12.434;2023-03-23T03:29:33;17.02;;;10.80;;
33279;SDS011;20403;43.114;12.434;2023-03-23T03:34:29;15.77;;;10.18;;
33279;SDS011;20403;43.114;12.434;2023-03-23T03:36:57;19.05;;;9.43;;
33279;SDS011;20403;43.114;12.434;2023-03-23T03:39:24;15.52;;;9.40;;
33279;SDS011;20403;43.114;12.434;2023-03-23T03:41:51;19.75;;;10.07;;
33279;SDS011;20403;43.114;12.434;2023-03-23T03:44:17;15.82;;;10.00;;
33279;SDS011;20403;43.114;12.434;2023-03-23T03:46:42;16.25;;;10.07;;
33279;SDS011;20403;43.114;12.434;2023-03-23T03:49:08;16.50;;;9.75;;
33279;SDS011;20403;43.114;12.434;2023-03-23T03:51:37;20.92;;;10.25;;
33279;SDS011;20403;43.114;12.434;2023-03-23T03:54:03;17.17;;;9.93;;
33279;SDS011;20403;43.114;12.434;2023-03-23T03:56:28;17.02;;;10.07;;
33279;SDS011;20403;43.114;12.434;2023-03-23T03:58:57;19.65;;;10.13;;
33279;SDS011;20403;43.114;12.434;2023-03-23T04:01:22;18.73;;;9.70;;
33279;SDS011;20403;43.114;12.434;2023-03-23T04:03:49;18.75;;;10.40;;
33279;SDS011;20403;43.114;12.434;2023-03-23T04:06:15;15.23;;;9.93;;
33279;SDS011;20403;43.114;12.434;2023-03-23T04:08:41;19.40;;;10.52;;
33279;SDS011;20403;43.114;12.434;2023-03-23T04:11:08;17.35;;;10.23;;
33279;SDS011;20403;43.114;12.434;2023-03-23T04:13:35;15.93;;;10.68;;
33279;SDS011;20403;43.114;12.434;2023-03-23T04:16:00;16.45;;;9.50;;
33279;SDS011;20403;43.114;12.434;2023-03-23T04:18:26;16.45;;;9.88;;
33279;SDS011;20403;43.114;12.434;2023-03-23T04:20:53;14.30;;;9.88;;
33279;SDS011;20403;43.114;12.434;2023-03-23T04:23:24;15.82;;;10.55;;
33279;SDS011;20403;43.114;12.434;2023-03-23T04:25:51;16.67;;;10.15;;
33279;SDS011;20403;43.114;12.434;2023-03-23T04:28:21;17.70;;;10.00;;
33279;SDS011;20403;43.114;12.434;2023-03-23T04:30:48;15.80;;;10.10;;
33279;SDS011;20403;43.114;12.434;2023-03-23T04:33:17;21.45;;;10.15;;
33279;SDS011;20403;43.114;12.434;2023-03-23T04:35:44;14.27;;;9.93;;
33279;SDS011;20403;43.114;12.434;2023-03-23T04:38:10;15.98;;;10.52;;
33279;SDS011;20403;43.114;12.434;2023-03-23T04:40:37;20.55;;;10.65;;
33279;SDS011;20403;43.114;12.434;2023-03-23T04:43:04;15.98;;;10.20;;
33279;SDS011;20403;43.114;12.434;2023-03-23T04:45:31;22.08;;;10.98;;
33279;SDS011;20403;43.114;12.434;2023-03-23T04:47:58;17.60;;;10.55;;
33279;SDS011;20403;43.114;12.434;2023-03-23T04:50:25;16.05;;;10.57;;
33279;SDS011;20403;43.114;12.434;2023-03-23T04:52:53;15.70;;;9.68;;
33279;SDS011;20403;43.114;12.434;2023-03-23T04:55:22;15.68;;;10.07;;
33279;SDS011;20403;43.114;12.434;2023-03-23T04:57:50;16.33;;;9.80;;
33279;SDS011;20403;43.114;12.434;2023-03-23T05:00:16;18.23;;;10.23;;
33279;SDS011;20403;43.114;12.434;2023-03-23T05:02:43;15.55;;;9.80;;
33279;SDS011;20403;43.114;12.434;2023-03-23T05:05:10;16.98;;;9.85;;
33279;SDS011;20403;43.114;12.434;2023-03-23T05:07:40;15.52;;;10.45;;
33279;SDS011;20403;43.114;12.434;2023-03-23T05:10:10;13.40;;;9.00;;
33279;SDS011;20403;43.114;12.434;2023-03-23T05:12:36;22.48;;;9.70;;
33279;SDS011;20403;43.114;12.434;2023-03-23T05:15:02;16.85;;;9.95;;
33279;SDS011;20403;43.114;12.434;2023-03-23T05:17:28;18.58;;;9.93;;
33279;SDS011;20403;43.114;12.434;2023-03-23T05:19:55;18.70;;;9.65;;
33279;SDS011;20403;43.114;12.434;2023-03-23T05:22:21;20.52;;;9.93;;
33279;SDS011;20403;43.114;12.434;2023-03-23T05:24:48;20.52;;;9.90;;
33279;SDS011;20403;43.114;12.434;2023-03-23T05:27:16;17.05;;;9.27;;
33279;SDS011;20403;43.114;12.434;2023-03-23T05:29:43;15.10;;;8.80;;
33279;SDS011;20403;43.114;12.434;2023-03-23T05:32:13;15.18;;;10.25;;
33279;SDS011;20403;43.114;12.434;2023-03-23T05:34:40;17.38;;;9.95;;
33279;SDS011;20403;43.114;12.434;2023-03-23T05:37:08;15.77;;;9.88;;
33279;SDS011;20403;43.114;12.434;2023-03-23T05:39:34;13.75;;;9.65;;
33279;SDS011;20403;43.114;12.434;2023-03-23T05:42:00;19.20;;;10.35;;
33279;SDS011;20403;43.114;12.434;2023-03-23T05:44:26;17.52;;;9.95;;
33279;SDS011;20403;43.114;12.434;2023-03-23T05:46:51;14.63;;;9.57;;
33279;SDS011;20403;43.114;12.434;2023-03-23T05:49:17;15.43;;;9.80;;
33279;SDS011;20403;43.114;12.434;2023-03-23T05:51:43;19.00;;;10.57;;
33279;SDS011;20403;43.114;12.434;2023-03-23T05:54:09;17.00;;;8.60;;
33279;SDS011;20403;43.114;12.434;2023-03-23T05:56:35;16.85;;;9.15;;
33279;SDS011;20403;43.114;12.434;2023-03-23T05:59:01;13.10;;;9.20;;
33279;SDS011;20403;43.114;12.434;2023-03-23T06:01:28;15.27;;;9.55;;
33279;SDS011;20403;43.114;12.434;2023-03-23T06:03:54;15.95;;;9.32;;
33279;SDS011;20403;43.114;12.434;2023-03-23T06:06:24;16.58;;;9.75;;
33279;SDS011;20403;43.114;12.434;2023-03-23T06:08:50;14.18;;;9.38;;
33279;SDS011;20403;43.114;12.434;2023-03-23T06:11:16;16.35;;;9.65;;
33279;SDS011;20403;43.114;12.434;2023-03-23T06:13:42;22.58;;;9.15;;
33279;SDS011;20403;43.114;12.434;2023-03-23T06:16:08;23.55;;;9.82;;
33279;SDS011;20403;43.114;12.434;2023-03-23T06:18:34;14.45;;;9.82;;
33279;SDS011;20403;43.114;12.434;2023-03-23T06:21:02;19.55;;;10.30;;
33279;SDS011;20403;43.114;12.434;2023-03-23T06:23:29;15.15;;;9.48;;
33279;SDS011;20403;43.114;12.434;2023-03-23T06:25:59;12.98;;;8.88;;
33279;SDS011;20403;43.114;12.434;2023-03-23T06:28:27;16.60;;;9.32;;
33279;SDS011;20403;43.114;12.434;2023-03-23T06:30:53;13.65;;;8.70;;
33279;SDS011;20403;43.114;12.434;2023-03-23T06:33:18;17.05;;;8.38;;
33279;SDS011;20403;43.114;12.434;2023-03-23T06:35:44;15.73;;;9.38;;
33279;SDS011;20403;43.114;12.434;2023-03-23T06:38:10;18.60;;;8.82;;
33279;SDS011;20403;43.114;12.434;2023-03-23T06:40:36;14.88;;;8.57;;
33279;SDS011;20403;43.114;12.434;2023-03-23T06:43:02;18.17;;;9.05;;
33279;SDS011;20403;43.114;12.434;2023-03-23T06:45:31;18.80;;;9.35;;
33279;SDS011;20403;43.114;12.434;2023-03-23T06:47:56;18.55;;;9.02;;
33279;SDS011;20403;43.114;12.434;2023-03-23T06:50:22;15.85;;;9.75;;
33279;SDS011;20403;43.114;12.434;2023-03-23T06:52:48;22.15;;;10.60;;
33279;SDS011;20403;43.114;12.434;2023-03-23T06:55:15;14.45;;;9.63;;
33279;SDS011;20403;43.114;12.434;2023-03-23T06:57:42;27.42;;;11.25;;
33279;SDS011;20403;43.114;12.434;2023-03-23T07:00:08;20.63;;;10.52;;
33279;SDS011;20403;43.114;12.434;2023-03-23T07:02:38;23.83;;;9.80;;
33279;SDS011;20403;43.114;12.434;2023-03-23T07:05:06;19.45;;;10.65;;
33279;SDS011;20403;43.114;12.434;2023-03-23T07:07:36;18.38;;;9.43;;
33279;SDS011;20403;43.114;12.434;2023-03-23T07:10:03;19.83;;;11.05;;
33279;SDS011;20403;43.114;12.434;2023-03-23T07:12:29;23.35;;;12.60;;
33279;SDS011;20403;43.114;12.434;2023-03-23T07:14:55;17.98;;;10.00;;
33279;SDS011;20403;43.114;12.434;2023-03-23T07:17:20;15.45;;;9.27;;
33279;SDS011;20403;43.114;12.434;2023-03-23T07:19:46;16.27;;;9.95;;
33279;SDS011;20403;43.114;12.434;2023-03-23T07:22:11;15.35;;;9.80;;
33279;SDS011;20403;43.114;12.434;2023-03-23T07:24:36;18.85;;;9.88;;
33279;SDS011;20403;43.114;12.434;2023-03-23T07:27:02;19.60;;;9.88;;
33279;SDS011;20403;43.114;12.434;2023-03-23T07:29:27;16.73;;;9.75;;
33279;SDS011;20403;43.114;12.434;2023-03-23T07:31:53;18.42;;;9.90;;
33279;SDS011;20403;43.114;12.434;2023-03-23T07:34:19;13.25;;;9.15;;
33279;SDS011;20403;43.114;12.434;2023-03-23T07:36:44;18.42;;;9.30;;
33279;SDS011;20403;43.114;12.434;2023-03-23T07:39:10;12.82;;;8.60;;
33279;SDS011;20403;43.114;12.434;2023-03-23T07:41:37;22.83;;;8.57;;
33279;SDS011;20403;43.114;12.434;2023-03-23T07:44:03;13.88;;;8.57;;
33279;SDS011;20403;43.114;12.434;2023-03-23T07:46:29;24.38;;;9.38;;
33279;SDS011;20403;43.114;12.434;2023-03-23T07:48:54;15.25;;;8.40;;
33279;SDS011;20403;43.114;12.434;2023-03-23T07:51:21;15.82;;;9.05;;
33279;SDS011;20403;43.114;12.434;2023-03-23T07:53:47;19.25;;;9.85;;
33279;SDS011;20403;43.114;12.434;2023-03-23T07:56:13;13.40;;;8.50;;
33279;SDS011;20403;43.114;12.434;2023-03-23T07:58:40;13.05;;;8.77;;
33279;SDS011;20403;43.114;12.434;2023-03-23T08:01:06;16.75;;;9.63;;
33279;SDS011;20403;43.114;12.434;2023-03-23T08:03:32;23.00;;;10.50;;
33279;SDS011;20403;43.114;12.434;2023-03-23T08:05:58;16.75;;;10.13;;
33279;SDS011;20403;43.114;12.434;2023-03-23T08:08:24;22.92;;;10.48;;
33279;SDS011;20403;43.114;12.434;2023-03-23T08:10:50;20.48;;;10.77;;
33279;SDS011;20403;43.114;12.434;2023-03-23T08:13:15;19.10;;;10.25;;
33279;SDS011;20403;43.114;12.434;2023-03-23T08:15:41;15.32;;;10.45;;
33279;SDS011;20403;43.114;12.434;2023-03-23T08:18:07;24.15;;;12.10;;
33279;SDS011;20403;43.114;12.434;2023-03-23T08:20:33;21.25;;;12.50;;
33279;SDS011;20403;43.114;12.434;2023-03-23T08:22:58;22.98;;;12.23;;
33279;SDS011;20403;43.114;12.434;2023-03-23T08:25:25;21.35;;;12.60;;
33279;SDS011;20403;43.114;12.434;2023-03-23T08:27:51;24.58;;;13.13;;
33279;SDS011;20403;43.114;12.434;2023-03-23T08:30:18;24.73;;;12.68;;
33279;SDS011;20403;43.114;12.434;2023-03-23T08:32:46;27.27;;;12.98;;
33279;SDS011;20403;43.114;12.434;2023-03-23T08:35:12;32.83;;;11.82;;
33279;SDS011;20403;43.114;12.434;2023-03-23T08:37:40;18.50;;;11.50;;
33279;SDS011;20403;43.114;12.434;2023-03-23T08:40:07;26.73;;;13.80;;
33279;SDS011;20403;43.114;12.434;2023-03-23T08:42:40;23.45;;;12.15;;
33279;SDS011;20403;43.114;12.434;2023-03-23T08:45:08;21.13;;;12.02;;
33279;SDS011;20403;43.114;12.434;2023-03-23T08:47:35;18.02;;;11.13;;
33279;SDS011;20403;43.114;12.434;2023-03-23T08:50:05;18.95;;;12.13;;
33279;SDS011;20403;43.114;12.434;2023-03-23T08:52:31;18.80;;;11.57;;
33279;SDS011;20403;43.114;12.434;2023-03-23T08:54:56;19.10;;;11.82;;
33279;SDS011;20403;43.114;12.434;2023-03-23T08:57:22;21.88;;;11.27;;
33279;SDS011;20403;43.114;12.434;2023-03-23T08:59:49;29.05;;;11.75;;
33279;SDS011;20403;43.114;12.434;2023-03-23T09:02:14;21.27;;;11.82;;
33279;SDS011;20403;43.114;12.434;2023-03-23T09:04:41;20.40;;;11.63;;
33279;SDS011;20403;43.114;12.434;2023-03-23T09:07:08;19.77;;;12.30;;
33279;SDS011;20403;43.114;12.434;2023-03-23T09:09:39;21.80;;;12.00;;
33279;SDS011;20403;43.114;12.434;2023-03-23T09:12:06;25.25;;;11.65;;
33279;SDS011;20403;43.114;12.434;2023-03-23T09:14:33;19.38;;;11.90;;
33279;SDS011;20403;43.114;12.434;2023-03-23T09:16:59;24.13;;;12.38;;
33279;SDS011;20403;43.114;12.434;2023-03-23T09:19:25;25.42;;;11.82;;
33279;SDS011;20403;43.114;12.434;2023-03-23T09:21:51;23.67;;;11.75;;
33279;SDS011;20403;43.114;12.434;2023-03-23T09:24:16;25.63;;;12.15;;
33279;SDS011;20403;43.114;12.434;2023-03-23T09:26:42;21.23;;;11.30;;
33279;SDS011;20403;43.114;12.434;2023-03-23T09:29:07;23.17;;;10.95;;
33279;SDS011;20403;43.114;12.434;2023-03-23T09:31:33;16.77;;;10.38;;
33279;SDS011;20403;43.114;12.434;2023-03-23T09:34:01;16.95;;;10.82;;
33279;SDS011;20403;43.114;12.434;2023-03-23T09:36:29;20.02;;;10.55;;
33279;SDS011;20403;43.114;12.434;2023-03-23T09:38:56;18.23;;;10.57;;
33279;SDS011;20403;43.114;12.434;2023-03-23T09:41:33;20.98;;;9.93;;
33279;SDS011;20403;43.114;12.434;2023-03-23T09:44:03;18.65;;;10.02;;
33279;SDS011;20403;43.114;12.434;2023-03-23T09:49:15;22.27;;;9.57;;
33279;SDS011;20403;43.114;12.434;2023-03-23T09:52:10;16.20;;;8.45;;
33279;SDS011;20403;43.114;12.434;2023-03-23T09:54:37;18.88;;;8.35;;
33279;SDS011;20403;43.114;12.434;2023-03-23T09:57:11;15.30;;;8.70;;
33279;SDS011;20403;43.114;12.434;2023-03-23T09:59:52;15.00;;;8.27;;
33279;SDS011;20403;43.114;12.434;2023-03-23T10:02:28;13.65;;;7.75;;
33279;SDS011;20403;43.114;12.434;2023-03-23T10:05:12;14.52;;;8.25;;
33279;SDS011;20403;43.114;12.434;2023-03-23T10:07:49;12.15;;;7.65;;
33279;SDS011;20403;43.114;12.434;2023-03-23T10:10:14;16.05;;;7.40;;
33279;SDS011;20403;43.114;12.434;2023-03-23T10:12:51;13.20;;;7.68;;
33279;SDS011;20403;43.114;12.434;2023-03-23T10:15:27;17.27;;;9.27;;
33279;SDS011;20403;43.114;12.434;2023-03-23T10:20:56;19.05;;;11.30;;
33279;SDS011;20403;43.114;12.434;2023-03-23T10:29:12;17.00;;;7.55;;
33279;SDS011;20403;43.114;12.434;2023-03-23T10:34:47;10.30;;;6.38;;
33279;SDS011;20403;43.114;12.434;2023-03-23T10:37:34;13.07;;;7.13;;
33279;SDS011;20403;43.114;12.434;2023-03-23T10:40:03;16.08;;;7.18;;
33279;SDS011;20403;43.114;12.434;2023-03-23T10:42:35;10.20;;;6.80;;
33279;SDS011;20403;43.114;12.434;2023-03-23T10:45:24;13.70;;;7.00;;
33279;SDS011;20403;43.114;12.434;2023-03-23T10:47:56;12.68;;;7.00;;
33279;SDS011;20403;43.114;12.434;2023-03-23T10:50:44;16.75;;;7.03;;
33279;SDS011;20403;43.114;12.434;2023-03-23T10:53:23;35.03;;;19.65;;
33279;SDS011;20403;43.114;12.434;2023-03-23T10:55:55;12.30;;;6.55;;
33279;SDS011;20403;43.114;12.434;2023-03-23T10:58:31;17.90;;;7.03;;
33279;SDS011;20403;43.114;12.434;2023-03-23T11:01:00;16.15;;;6.78;;
33279;SDS011;20403;43.114;12.434;2023-03-23T11:03:35;11.18;;;5.65;;
33279;SDS011;20403;43.114;12.434;2023-03-23T11:06:06;17.13;;;7.43;;
33279;SDS011;20403;43.114;12.434;2023-03-23T11:08:53;13.90;;;6.43;;
33279;SDS011;20403;43.114;12.434;2023-03-23T11:11:31;16.20;;;6.35;;
33279;SDS011;20403;43.114;12.434;2023-03-23T11:16:41;12.82;;;7.78;;
33279;SDS011;20403;43.114;12.434;2023-03-23T11:19:13;13.15;;;6.78;;
33279;SDS011;20403;43.114;12.434;2023-03-23T11:21:40;11.27;;;5.97;;
33279;SDS011;20403;43.114;12.434;2023-03-23T11:24:07;11.27;;;5.93;;
33279;SDS011;20403;43.114;12.434;2023-03-23T11:26:33;11.60;;;6.35;;
33279;SDS011;20403;43.114;12.434;2023-03-23T11:31:48;19.23;;;7.13;;
33279;SDS011;20403;43.114;12.434;2023-03-23T11:34:33;10.77;;;6.25;;
33279;SDS011;20403;43.114;12.434;2023-03-23T11:37:01;10.45;;;5.93;;
33279;SDS011;20403;43.114;12.434;2023-03-23T11:39:32;12.80;;;6.65;;
33279;SDS011;20403;43.114;12.434;2023-03-23T11:42:12;12.10;;;6.57;;
33279;SDS011;20403;43.114;12.434;2023-03-23T11:44:43;12.77;;;5.68;;
33279;SDS011;20403;43.114;12.434;2023-03-23T11:50:16;10.98;;;5.38;;
33279;SDS011;20403;43.114;12.434;2023-03-23T11:52:49;13.98;;;5.85;;
33279;SDS011;20403;43.114;12.434;2023-03-23T11:58:02;13.57;;;5.90;;
33279;SDS011;20403;43.114;12.434;2023-03-23T12:00:36;10.50;;;5.43;;
33279;SDS011;20403;43.114;12.434;2023-03-23T12:06:15;15.40;;;5.78;;
33279;SDS011;20403;43.114;12.434;2023-03-23T12:08:57;11.98;;;5.18;;
33279;SDS011;20403;43.114;12.434;2023-03-23T12:11:26;10.25;;;4.40;;
33279;SDS011;20403;43.114;12.434;2023-03-23T12:16:53;5.78;;;3.40;;
33279;SDS011;20403;43.114;12.434;2023-03-23T12:27:55;4.07;;;2.20;;
33279;SDS011;20403;43.114;12.434;2023-03-23T12:30:49;5.30;;;2.20;;
33279;SDS011;20403;43.114;12.434;2023-03-23T12:36:07;5.32;;;2.08;;
33279;SDS011;20403;43.114;12.434;2023-03-23T12:41:29;2.40;;;1.48;;
33279;SDS011;20403;43.114;12.434;2023-03-23T12:50:31;2.10;;;1.25;;
33279;SDS011;20403;43.114;12.434;2023-03-23T13:00:25;5.20;;;1.10;;
33279;SDS011;20403;43.114;12.434;2023-03-23T13:03:20;3.03;;;1.10;;
33279;SDS011;20403;43.114;12.434;2023-03-23T13:05:48;3.33;;;1.20;;
33279;SDS011;20403;43.114;12.434;2023-03-23T13:08:27;3.55;;;1.30;;
33279;SDS011;20403;43.114;12.434;2023-03-23T13:10:59;6.43;;;1.23;;
33279;SDS011;20403;43.114;12.434;2023-03-23T13:13:48;1.45;;;1.00;;
33279;SDS011;20403;43.114;12.434;2023-03-23T13:16:20;3.95;;;1.30;;
33279;SDS011;20403;43.114;12.434;2023-03-23T13:21:42;1.85;;;0.95;;
33279;SDS011;20403;43.114;12.434;2023-03-23T13:24:14;2.70;;;1.38;;
33279;SDS011;20403;43.114;12.434;2023-03-23T13:26:43;2.60;;;1.38;;
33279;SDS011;20403;43.114;12.434;2023-03-23T13:29:12;3.92;;;1.33;;
33279;SDS011;20403;43.114;12.434;2023-03-23T13:31:43;5.28;;;1.45;;
33279;SDS011;20403;43.114;12.434;2023-03-23T13:34:25;4.10;;;1.45;;
33279;SDS011;20403;43.114;12.434;2023-03-23T13:39:25;3.17;;;0.82;;
33279;SDS011;20403;43.114;12.434;2023-03-23T13:42:00;1.45;;;0.98;;
33279;SDS011;20403;43.114;12.434;2023-03-23T13:44:40;3.38;;;1.15;;
33279;SDS011;20403;43.114;12.434;2023-03-23T14:06:15;4.30;;;1.77;;
33279;SDS011;20403;43.114;12.434;2023-03-23T14:08:44;2.05;;;1.10;;
33279;SDS011;20403;43.114;12.434;2023-03-23T14:16:25;1.58;;;1.00;;
33279;SDS011;20403;43.114;12.434;2023-03-23T14:18:57;2.47;;;1.15;;
33279;SDS011;20403;43.114;12.434;2023-03-23T14:26:37;3.00;;;1.33;;
33279;SDS011;20403;43.114;12.434;2023-03-23T14:29:03;2.22;;;1.35;;
33279;SDS011;20403;43.114;12.434;2023-03-23T14:31:30;2.45;;;1.40;;
33279;SDS011;20403;43.114;12.434;2023-03-23T14:33:56;3.97;;;1.80;;
33279;SDS011;20403;43.114;12.434;2023-03-23T14:36:29;5.70;;;1.90;;
33279;SDS011;20403;43.114;12.434;2023-03-23T14:39:05;4.97;;;1.85;;
33279;SDS011;20403;43.114;12.434;2023-03-23T14:41:37;4.95;;;2.35;;
33279;SDS011;20403;43.114;12.434;2023-03-23T14:44:11;5.28;;;2.20;;
33279;SDS011;20403;43.114;12.434;2023-03-23T14:46:41;5.15;;;2.20;;
33279;SDS011;20403;43.114;12.434;2023-03-23T14:49:10;6.00;;;2.10;;
33279;SDS011;20403;43.114;12.434;2023-03-23T14:51:51;7.20;;;1.98;;
33279;SDS011;20403;43.114;12.434;2023-03-23T14:54:22;11.82;;;2.60;;
33279;SDS011;20403;43.114;12.434;2023-03-23T14:56:50;4.97;;;2.03;;
33279;SDS011;20403;43.114;12.434;2023-03-23T14:59:15;5.07;;;2.67;;
33279;SDS011;20403;43.114;12.434;2023-03-23T15:01:41;5.55;;;1.90;;
33279;SDS011;20403;43.114;12.434;2023-03-23T15:04:13;5.85;;;1.60;;
33279;SDS011;20403;43.114;12.434;2023-03-23T15:06:52;4.05;;;1.65;;
33279;SDS011;20403;43.114;12.434;2023-03-23T15:09:22;3.72;;;1.60;;
33279;SDS011;20403;43.114;12.434;2023-03-23T15:11:59;4.35;;;1.92;;
33279;SDS011;20403;43.114;12.434;2023-03-23T15:14:29;5.68;;;1.67;;
33279;SDS011;20403;43.114;12.434;2023-03-23T15:16:58;3.75;;;1.73;;
33279;SDS011;20403;43.114;12.434;2023-03-23T15:19:25;5.32;;;1.65;;
33279;SDS011;20403;43.114;12.434;2023-03-23T15:22:07;3.17;;;1.38;;
33279;SDS011;20403;43.114;12.434;2023-03-23T15:24:37;4.20;;;1.98;;
33279;SDS011;20403;43.114;12.434;2023-03-23T15:29:57;10.80;;;4.07;;
33279;SDS011;20403;43.114;12.434;2023-03-23T15:32:29;6.40;;;2.47;;
33279;SDS011;20403;43.114;12.434;2023-03-23T15:35:03;6.65;;;1.88;;
33279;SDS011;20403;43.114;12.434;2023-03-23T15:37:36;6.80;;;2.30;;
33279;SDS011;20403;43.114;12.434;2023-03-23T15:40:13;5.70;;;1.90;;
33279;SDS011;20403;43.114;12.434;2023-03-23T15:42:40;2.47;;;1.30;;
33279;SDS011;20403;43.114;12.434;2023-03-23T15:50:13;3.50;;;1.75;;
33279;SDS011;20403;43.114;12.434;2023-03-23T15:52:57;2.65;;;1.70;;
33279;SDS011;20403;43.114;12.434;2023-03-23T15:57:56;5.20;;;1.80;;
33279;SDS011;20403;43.114;12.434;2023-03-23T16:00:23;8.13;;;2.35;;
33279;SDS011;20403;43.114;12.434;2023-03-23T16:02:53;2.88;;;1.48;;
33279;SDS011;20403;43.114;12.434;2023-03-23T16:05:21;3.28;;;1.38;;
33279;SDS011;20403;43.114;12.434;2023-03-23T16:07:47;3.50;;;1.50;;
33279;SDS011;20403;43.114;12.434;2023-03-23T16:10:17;15.10;;;2.17;;
33279;SDS011;20403;43.114;12.434;2023-03-23T16:12:45;4.20;;;1.30;;
33279;SDS011;20403;43.114;12.434;2023-03-23T16:15:11;5.07;;;1.48;;
33279;SDS011;20403;43.114;12.434;2023-03-23T16:17:38;3.72;;;1.55;;
33279;SDS011;20403;43.114;12.434;2023-03-23T16:20:17;2.85;;;1.23;;
33279;SDS011;20403;43.114;12.434;2023-03-23T16:22:44;5.43;;;1.40;;
33279;SDS011;20403;43.114;12.434;2023-03-23T16:25:10;3.95;;;1.17;;
33279;SDS011;20403;43.114;12.434;2023-03-23T16:27:37;5.97;;;1.15;;
33279;SDS011;20403;43.114;12.434;2023-03-23T16:30:13;6.32;;;1.42;;
33279;SDS011;20403;43.114;12.434;2023-03-23T16:32:41;3.58;;;1.52;;
33279;SDS011;20403;43.114;12.434;2023-03-23T16:35:07;1.33;;;0.80;;
33279;SDS011;20403;43.114;12.434;2023-03-23T16:37:32;7.28;;;1.40;;
33279;SDS011;20403;43.114;12.434;2023-03-23T16:39:58;15.98;;;2.00;;
33279;SDS011;20403;43.114;12.434;2023-03-23T16:42:25;5.93;;;1.50;;
33279;SDS011;20403;43.114;12.434;2023-03-23T16:44:50;5.90;;;1.50;;
33279;SDS011;20403;43.114;12.434;2023-03-23T16:47:16;4.38;;;1.55;;
33279;SDS011;20403;43.114;12.434;2023-03-23T16:49:43;13.23;;;1.48;;